createdAt,value
2022-11-17T00:00:18.529Z,2.20
2022-11-17T00:02:45.643Z,2.70
2022-11-17T00:05:12.069Z,2.65
2022-11-17T00:07:38.442Z,2.40
2022-11-17T00:10:05.329Z,1.80
2022-11-17T00:12:33.131Z,2.50
2022-11-17T00:14:59.697Z,2.33
2022-11-17T00:17:26.040Z,3.00
2022-11-17T00:19:52.437Z,2.90
2022-11-17T00:22:19.103Z,2.47
2022-11-17T00:24:45.535Z,3.10
2022-11-17T00:27:12.416Z,2.58
2022-11-17T00:29:39.518Z,2.50
2022-11-17T00:32:16.362Z,2.90
2022-11-17T00:34:42.922Z,2.63
2022-11-17T00:37:10.609Z,2.90
2022-11-17T00:39:37.523Z,2.90
2022-11-17T00:42:04.271Z,2.92
2022-11-17T00:44:31.181Z,2.70
2022-11-17T00:46:57.567Z,2.65
2022-11-17T00:49:23.936Z,2.50
2022-11-17T00:51:50.723Z,2.83
2022-11-17T00:54:17.244Z,2.60
2022-11-17T00:56:43.640Z,2.72
2022-11-17T00:59:10.597Z,3.08
2022-11-17T01:01:38.094Z,2.70
2022-11-17T01:04:05.209Z,2.55
2022-11-17T01:06:38.291Z,2.70
2022-11-17T01:09:07.108Z,1.95
2022-11-17T01:11:33.836Z,3.00
2022-11-17T01:14:00.666Z,2.72
2022-11-17T01:16:28.965Z,2.42
2022-11-17T01:18:55.419Z,2.33
2022-11-17T01:21:24.087Z,2.85
2022-11-17T01:23:52.506Z,2.45
2022-11-17T01:26:25.093Z,2.40
2022-11-17T01:28:52.234Z,2.30
2022-11-17T01:31:21.732Z,2.67
2022-11-17T01:33:48.707Z,2.05
2022-11-17T01:36:17.801Z,2.70
2022-11-17T01:38:45.097Z,2.50
2022-11-17T01:41:16.141Z,2.53
2022-11-17T01:43:50.948Z,2.15
2022-11-17T01:46:39.244Z,2.40
2022-11-17T01:49:16.521Z,3.13
2022-11-17T01:51:50.584Z,2.60
2022-11-17T01:54:21.097Z,2.03
2022-11-17T01:56:52.019Z,3.17
2022-11-17T01:59:30.940Z,2.05
2022-11-17T02:01:57.832Z,3.33
2022-11-17T02:04:44.218Z,2.50
2022-11-17T02:07:20.953Z,2.35
2022-11-17T02:09:47.334Z,2.10
2022-11-17T02:12:15.257Z,2.60
2022-11-17T02:14:41.638Z,2.20
2022-11-17T02:17:14.027Z,2.65
2022-11-17T02:19:42.979Z,2.60
2022-11-17T02:22:25.917Z,2.40
2022-11-17T02:25:13.984Z,2.67
2022-11-17T02:27:53.363Z,2.70
2022-11-17T02:30:22.328Z,2.10
2022-11-17T02:33:01.042Z,2.60
2022-11-17T02:35:37.393Z,2.60
2022-11-17T02:38:25.098Z,2.60
2022-11-17T02:41:12.042Z,2.33
2022-11-17T02:43:45.258Z,2.17
2022-11-17T02:46:21.366Z,2.00
2022-11-17T02:48:58.587Z,2.10
2022-11-17T02:51:25.112Z,1.75
2022-11-17T02:53:54.166Z,2.53
2022-11-17T02:56:20.961Z,2.50
2022-11-17T02:58:54.320Z,2.20
2022-11-17T03:01:36.854Z,2.20
2022-11-17T03:04:31.315Z,1.98
2022-11-17T03:07:00.434Z,2.38
2022-11-17T03:09:42.421Z,2.30
2022-11-17T03:12:28.996Z,2.58
2022-11-17T03:15:04.963Z,3.10
2022-11-17T03:17:39.783Z,3.00
2022-11-17T03:20:17.543Z,2.70
2022-11-17T03:22:53.697Z,3.10
2022-11-17T03:25:23.202Z,2.40
2022-11-17T03:27:54.730Z,2.63
2022-11-17T03:30:21.237Z,3.33
2022-11-17T03:32:51.733Z,3.03
2022-11-17T03:35:23.296Z,2.85
2022-11-17T03:37:53.694Z,2.85
2022-11-17T03:40:25.215Z,3.03
2022-11-17T03:42:56.245Z,2.53
2022-11-17T03:45:26.523Z,3.70
2022-11-17T03:48:00.133Z,3.42
2022-11-17T03:50:36.697Z,3.33
2022-11-17T03:53:04.815Z,3.35
2022-11-17T03:55:41.556Z,3.35
2022-11-17T03:58:15.452Z,2.90
2022-11-17T04:00:42.953Z,3.08
2022-11-17T04:03:09.340Z,2.67
2022-11-17T04:05:35.706Z,3.40
2022-11-17T04:08:02.033Z,3.30
2022-11-17T04:10:28.482Z,2.83
2022-11-17T04:12:55.040Z,2.88
2022-11-17T04:15:21.546Z,3.08
2022-11-17T04:17:47.924Z,3.42
2022-11-17T04:20:14.580Z,2.63
2022-11-17T04:22:40.900Z,3.20
2022-11-17T04:25:07.621Z,3.55
2022-11-17T04:27:34.006Z,3.40
2022-11-17T04:30:00.313Z,2.55
2022-11-17T04:32:26.619Z,3.05
2022-11-17T04:34:52.909Z,2.42
2022-11-17T04:37:19.249Z,2.47
2022-11-17T04:39:45.834Z,2.30
2022-11-17T04:42:12.538Z,2.15
2022-11-17T04:44:38.856Z,3.03
2022-11-17T04:47:05.225Z,3.28
2022-11-17T04:49:32.294Z,3.55
2022-11-17T04:51:58.745Z,2.83
2022-11-17T04:54:25.113Z,3.47
2022-11-17T04:56:53.935Z,3.60
2022-11-17T04:59:21.004Z,3.28
2022-11-17T05:01:47.760Z,3.45
2022-11-17T05:04:16.557Z,3.35
2022-11-17T05:06:44.717Z,3.22
2022-11-17T05:09:13.590Z,2.63
2022-11-17T05:11:40.612Z,2.70
2022-11-17T05:14:07.553Z,2.28
2022-11-17T05:16:33.938Z,3.17
2022-11-17T05:19:00.258Z,2.45
2022-11-17T05:21:26.600Z,3.35
2022-11-17T05:23:52.922Z,2.42
2022-11-17T05:26:21.728Z,2.63
2022-11-17T05:28:48.391Z,2.72
2022-11-17T05:31:15.107Z,3.40
2022-11-17T05:33:42.140Z,3.33
2022-11-17T05:36:09.610Z,3.60
2022-11-17T05:38:36.232Z,3.65
2022-11-17T05:41:02.693Z,2.88
2022-11-17T05:43:29.136Z,3.10
2022-11-17T05:45:55.477Z,4.45
2022-11-17T05:48:21.780Z,4.03
2022-11-17T05:50:48.153Z,3.58
2022-11-17T05:53:14.464Z,3.00
2022-11-17T05:55:40.769Z,3.28
2022-11-17T05:58:15.548Z,3.22
2022-11-17T06:00:42.100Z,3.22
2022-11-17T06:03:15.761Z,4.38
2022-11-17T06:05:42.923Z,4.22
2022-11-17T06:08:09.486Z,3.92
2022-11-17T06:10:35.834Z,3.58
2022-11-17T06:13:02.125Z,3.70
2022-11-17T06:15:33.480Z,4.10
2022-11-17T06:18:06.728Z,3.40
2022-11-17T06:20:38.189Z,4.43
2022-11-17T06:23:07.467Z,3.67
2022-11-17T06:25:35.829Z,4.50
2022-11-17T06:28:04.709Z,3.22
2022-11-17T06:30:31.428Z,3.47
2022-11-17T06:32:59.243Z,4.47
2022-11-17T06:35:25.557Z,4.53
2022-11-17T06:37:51.865Z,4.00
2022-11-17T06:40:18.194Z,3.78
2022-11-17T06:42:44.532Z,3.38
2022-11-17T06:45:11.568Z,2.97
2022-11-17T06:47:37.910Z,3.30
2022-11-17T06:50:04.782Z,3.65
2022-11-17T06:52:31.083Z,3.55
2022-11-17T06:54:57.401Z,3.78
2022-11-17T06:57:23.705Z,4.53
2022-11-17T06:59:50.025Z,3.88
2022-11-17T07:02:16.378Z,3.55
2022-11-17T07:04:42.707Z,4.25
2022-11-17T07:07:09.106Z,4.70
2022-11-17T07:09:35.449Z,4.45
2022-11-17T07:12:01.814Z,3.58
2022-11-17T07:14:28.140Z,4.00
2022-11-17T07:16:54.435Z,3.83
2022-11-17T07:19:20.783Z,4.22
2022-11-17T07:21:47.146Z,3.78
2022-11-17T07:24:13.490Z,4.47
2022-11-17T07:26:39.882Z,4.65
2022-11-17T07:29:06.343Z,4.10
2022-11-17T07:31:35.131Z,4.07
2022-11-17T07:34:01.432Z,4.30
2022-11-17T07:36:27.776Z,4.20
2022-11-17T07:38:54.127Z,4.13
2022-11-17T07:41:20.583Z,4.13
2022-11-17T07:43:46.913Z,4.45
2022-11-17T07:46:14.683Z,3.85
2022-11-17T07:48:41.983Z,3.05
2022-11-17T07:51:08.573Z,3.13
2022-11-17T07:53:36.025Z,2.63
2022-11-17T07:56:11.482Z,2.40
2022-11-17T07:58:38.565Z,2.13
2022-11-17T08:01:13.700Z,1.80
2022-11-17T08:03:40.211Z,1.80
2022-11-17T08:06:07.628Z,1.48
2022-11-17T08:08:34.454Z,1.90
2022-11-17T08:11:11.452Z,1.50
2022-11-17T08:13:39.120Z,1.88
2022-11-17T08:16:06.818Z,1.52
2022-11-17T08:18:34.085Z,1.63
2022-11-17T08:21:03.165Z,1.60
2022-11-17T08:23:29.497Z,1.73
2022-11-17T08:25:55.921Z,1.40
2022-11-17T08:28:22.383Z,1.50
2022-11-17T08:30:48.799Z,1.45
2022-11-17T08:33:15.136Z,1.40
2022-11-17T08:35:41.605Z,1.30
2022-11-17T08:38:07.941Z,1.75
2022-11-17T08:40:34.271Z,1.52
2022-11-17T08:43:01.399Z,1.58
2022-11-17T08:45:28.277Z,1.40
2022-11-17T08:47:56.104Z,1.50
2022-11-17T08:50:22.455Z,1.50
2022-11-17T08:52:48.865Z,1.33
2022-11-17T08:55:15.456Z,1.27
2022-11-17T08:57:41.815Z,1.33
2022-11-17T09:00:08.870Z,1.60
2022-11-17T09:02:35.214Z,1.40
2022-11-17T09:05:01.567Z,1.60
2022-11-17T09:07:33.494Z,1.20
2022-11-17T09:10:01.939Z,1.73
2022-11-17T09:12:28.251Z,1.30
2022-11-17T09:14:54.570Z,1.52
2022-11-17T09:17:20.893Z,1.23
2022-11-17T09:19:47.303Z,1.27
2022-11-17T09:22:13.654Z,1.30
2022-11-17T09:24:39.946Z,1.20
2022-11-17T09:27:06.309Z,1.52
2022-11-17T09:29:32.600Z,1.40
2022-11-17T09:31:58.954Z,1.20
2022-11-17T09:34:25.396Z,1.17
2022-11-17T09:36:51.768Z,1.20
2022-11-17T09:39:18.136Z,1.35
2022-11-17T09:42:03.228Z,1.30
2022-11-17T09:44:43.890Z,1.10
2022-11-17T09:47:13.576Z,1.30
2022-11-17T09:49:55.084Z,1.13
2022-11-17T09:52:34.823Z,1.05
2022-11-17T09:55:22.197Z,1.08
2022-11-17T09:57:56.497Z,1.00
2022-11-17T10:00:23.272Z,1.23
2022-11-17T10:02:50.811Z,1.10
2022-11-17T10:05:32.843Z,1.30
2022-11-17T10:08:06.109Z,1.30
2022-11-17T10:10:52.662Z,1.08
2022-11-17T10:13:30.580Z,1.13
2022-11-17T10:16:12.056Z,1.08
2022-11-17T10:18:39.147Z,1.50
2022-11-17T10:21:07.078Z,1.52
2022-11-17T10:23:46.143Z,1.15
2022-11-17T10:26:15.239Z,1.27
2022-11-17T10:28:41.849Z,1.35
2022-11-17T10:31:14.275Z,1.20
2022-11-17T10:33:46.577Z,1.00
2022-11-17T10:36:24.035Z,1.20
2022-11-17T10:38:54.359Z,1.13
2022-11-17T10:41:23.857Z,1.15
2022-11-17T10:44:04.622Z,1.10
2022-11-17T10:46:41.562Z,1.00
2022-11-17T10:49:24.920Z,1.25
2022-11-17T10:52:14.251Z,1.08
2022-11-17T10:54:40.742Z,1.10
2022-11-17T10:57:13.262Z,1.33
2022-11-17T10:59:46.141Z,1.15
2022-11-17T11:02:33.784Z,1.27
2022-11-17T11:05:19.000Z,1.10
2022-11-17T11:07:45.439Z,1.30
2022-11-17T11:10:23.513Z,1.40
2022-11-17T11:13:17.270Z,1.05
2022-11-17T11:15:44.820Z,1.13
2022-11-17T11:18:17.306Z,1.33
2022-11-17T11:21:09.430Z,0.88
2022-11-17T11:23:48.146Z,1.10
2022-11-17T11:26:47.475Z,1.42
2022-11-17T11:29:34.959Z,1.15
2022-11-17T11:32:10.828Z,0.98
2022-11-17T11:34:52.348Z,1.08
2022-11-17T11:37:18.724Z,1.10
2022-11-17T11:40:06.538Z,1.20
2022-11-17T11:43:11.121Z,1.15
2022-11-17T11:46:07.954Z,0.98
2022-11-17T11:48:39.941Z,1.13
2022-11-17T11:51:19.062Z,1.20
2022-11-17T11:53:56.141Z,1.20
2022-11-17T11:56:31.529Z,1.20
2022-11-17T11:59:06.241Z,1.30
2022-11-17T12:01:44.887Z,1.10
2022-11-17T12:04:30.788Z,1.45
2022-11-17T12:07:33.135Z,1.30
2022-11-17T12:10:06.350Z,1.40
2022-11-17T12:12:36.970Z,1.38
2022-11-17T12:15:32.143Z,1.35
2022-11-17T12:18:18.361Z,1.55
2022-11-17T12:21:12.309Z,1.13
2022-11-17T12:23:58.071Z,1.25
2022-11-17T12:26:25.958Z,0.95
2022-11-17T12:29:19.914Z,1.13
2022-11-17T12:31:48.255Z,1.20
2022-11-17T12:34:27.880Z,1.08
2022-11-17T12:37:06.197Z,1.20
2022-11-17T12:39:51.507Z,1.05
2022-11-17T12:42:17.893Z,1.00
2022-11-17T12:44:47.225Z,0.90
2022-11-17T12:47:13.511Z,1.00
2022-11-17T12:50:01.900Z,1.33
2022-11-17T12:52:47.299Z,1.00
2022-11-17T12:55:24.205Z,0.95
2022-11-17T12:57:57.836Z,1.33
2022-11-17T13:00:24.584Z,0.90
2022-11-17T13:03:08.838Z,1.40
2022-11-17T13:08:13.358Z,1.05
2022-11-17T13:10:51.352Z,1.13
2022-11-17T13:13:23.578Z,1.10
2022-11-17T13:18:38.602Z,1.17
2022-11-17T13:21:35.379Z,1.33
2022-11-17T13:24:01.752Z,1.30
2022-11-17T13:26:30.368Z,1.05
2022-11-17T13:29:05.160Z,1.27
2022-11-17T13:31:31.965Z,1.30
2022-11-17T13:34:12.665Z,1.00
2022-11-17T13:36:59.204Z,1.20
2022-11-17T13:39:27.698Z,1.23
2022-11-17T13:41:55.845Z,1.35
2022-11-17T13:44:25.574Z,1.10
2022-11-17T13:46:51.933Z,1.30
2022-11-17T13:49:36.329Z,1.00
2022-11-17T13:52:03.580Z,1.33
2022-11-17T13:54:30.496Z,1.17
2022-11-17T13:57:06.454Z,1.25
2022-11-17T13:59:36.108Z,1.30
2022-11-17T14:02:17.498Z,1.00
2022-11-17T14:05:23.140Z,1.20
2022-11-17T14:07:52.029Z,1.00
2022-11-17T14:10:21.143Z,1.05
2022-11-17T14:13:08.236Z,1.35
2022-11-17T14:15:53.625Z,1.00
2022-11-17T14:18:31.908Z,1.10
2022-11-17T14:21:06.627Z,1.50
2022-11-17T14:23:33.634Z,1.33
2022-11-17T14:26:00.029Z,1.13
2022-11-17T14:28:26.530Z,1.02
2022-11-17T14:30:54.785Z,1.05
2022-11-17T14:33:21.784Z,0.93
2022-11-17T14:35:54.298Z,1.10
2022-11-17T14:38:21.852Z,1.20
2022-11-17T14:40:50.228Z,1.30
2022-11-17T14:43:16.605Z,1.30
2022-11-17T14:45:42.906Z,1.23
2022-11-17T14:48:14.660Z,1.10
2022-11-17T14:50:44.018Z,1.20
2022-11-17T14:53:10.353Z,1.40
2022-11-17T14:55:36.864Z,1.20
2022-11-17T14:58:03.206Z,1.40
2022-11-17T15:00:29.579Z,1.20
2022-11-17T15:02:55.912Z,1.50
2022-11-17T15:05:22.472Z,1.38
2022-11-17T15:07:48.842Z,1.40
2022-11-17T15:10:15.231Z,1.45
2022-11-17T15:12:41.532Z,1.65
2022-11-17T15:15:08.197Z,1.20
2022-11-17T15:17:34.504Z,1.70
2022-11-17T15:20:00.797Z,1.55
2022-11-17T15:22:27.107Z,1.50
2022-11-17T15:24:53.413Z,1.30
2022-11-17T15:27:19.756Z,1.90
2022-11-17T15:29:46.129Z,1.73
2022-11-17T15:32:12.498Z,1.58
2022-11-17T15:34:38.777Z,1.40
2022-11-17T15:37:05.089Z,1.55
2022-11-17T15:39:31.446Z,1.60
2022-11-17T15:41:57.796Z,1.58
2022-11-17T15:44:24.258Z,1.60
2022-11-17T15:46:50.575Z,1.42
2022-11-17T15:49:17.332Z,1.10
2022-11-17T15:51:44.166Z,1.25
2022-11-17T15:54:18.166Z,1.30
2022-11-17T15:56:46.617Z,1.38
2022-11-17T15:59:13.296Z,1.30
2022-11-17T16:01:40.156Z,1.27
2022-11-17T16:04:12.157Z,1.10
2022-11-17T16:06:41.045Z,1.20
2022-11-17T16:09:08.047Z,1.20
2022-11-17T16:11:35.219Z,1.20
2022-11-17T16:14:02.055Z,1.05
2022-11-17T16:16:34.551Z,1.20
2022-11-17T16:19:00.891Z,1.20
2022-11-17T16:21:27.477Z,1.38
2022-11-17T16:23:56.203Z,1.35
2022-11-17T16:26:24.773Z,1.30
2022-11-17T16:29:02.048Z,1.45
2022-11-17T16:31:31.345Z,1.27
2022-11-17T16:34:06.724Z,1.45
2022-11-17T16:36:37.238Z,1.27
2022-11-17T16:39:06.132Z,1.30
2022-11-17T16:41:35.612Z,1.40
2022-11-17T16:44:03.175Z,1.40
2022-11-17T16:46:31.374Z,1.67
2022-11-17T16:49:03.736Z,1.30
2022-11-17T16:51:30.519Z,1.45
2022-11-17T16:53:59.438Z,1.27
2022-11-17T16:56:25.821Z,1.33
2022-11-17T16:58:52.397Z,1.60
2022-11-17T17:01:24.610Z,1.30
2022-11-17T17:03:58.777Z,1.45
2022-11-17T17:06:26.157Z,1.30
2022-11-17T17:09:00.484Z,1.27
2022-11-17T17:11:27.259Z,1.10
2022-11-17T17:13:53.627Z,1.42
2022-11-17T17:16:20.356Z,1.30
2022-11-17T17:18:46.814Z,1.20
2022-11-17T17:21:15.757Z,1.40
2022-11-17T17:23:42.379Z,1.40
2022-11-17T17:26:14.207Z,1.60
2022-11-17T17:28:41.296Z,1.45
2022-11-17T17:31:07.884Z,1.30
2022-11-17T17:33:35.930Z,1.48
2022-11-17T17:36:06.489Z,1.65
2022-11-17T17:38:32.875Z,1.48
2022-11-17T17:41:16.635Z,1.35
2022-11-17T17:43:44.253Z,1.20
2022-11-17T17:46:15.754Z,1.20
2022-11-17T17:48:44.009Z,1.30
2022-11-17T17:51:16.097Z,1.20
2022-11-17T17:53:42.855Z,1.33
2022-11-17T17:56:12.510Z,1.75
2022-11-17T17:58:40.059Z,1.40
2022-11-17T18:01:10.575Z,1.00
2022-11-17T18:03:37.821Z,1.27
2022-11-17T18:06:04.660Z,1.40
2022-11-17T18:08:34.409Z,1.05
2022-11-17T18:11:01.198Z,1.30
2022-11-17T18:13:35.937Z,1.20
2022-11-17T18:16:06.988Z,1.30
2022-11-17T18:18:34.664Z,1.88
2022-11-17T18:21:03.149Z,1.33
2022-11-17T18:23:30.777Z,1.42
2022-11-17T18:25:58.026Z,1.40
2022-11-17T18:28:25.089Z,1.42
2022-11-17T18:30:51.379Z,1.27
2022-11-17T18:33:17.746Z,1.60
2022-11-17T18:35:44.097Z,1.48
2022-11-17T18:38:10.435Z,1.30
2022-11-17T18:40:36.753Z,1.23
2022-11-17T18:43:03.097Z,1.30
2022-11-17T18:45:29.409Z,1.17
2022-11-17T18:47:55.774Z,1.40
2022-11-17T18:50:22.176Z,1.40
2022-11-17T18:52:48.459Z,1.55
2022-11-17T18:55:14.805Z,1.70
2022-11-17T18:57:44.899Z,1.52
2022-11-17T19:00:12.249Z,1.60
2022-11-17T19:02:38.600Z,1.58
2022-11-17T19:05:05.284Z,1.50
2022-11-17T19:07:32.037Z,1.50
2022-11-17T19:09:58.424Z,1.40
2022-11-17T19:12:24.866Z,1.67
2022-11-17T19:14:51.208Z,1.58
2022-11-17T19:17:17.566Z,1.50
2022-11-17T19:19:43.914Z,1.80
2022-11-17T19:22:10.269Z,1.75
2022-11-17T19:24:36.624Z,1.73
2022-11-17T19:27:03.118Z,1.90
2022-11-17T19:29:29.420Z,1.63
2022-11-17T19:31:55.767Z,1.95
2022-11-17T19:34:22.139Z,1.58
2022-11-17T19:36:48.442Z,1.70
2022-11-17T19:39:15.445Z,1.95
2022-11-17T19:41:42.699Z,1.40
2022-11-17T19:44:09.461Z,1.52
2022-11-17T19:46:36.190Z,1.60
2022-11-17T19:49:04.066Z,1.30
2022-11-17T19:51:32.316Z,1.40
2022-11-17T19:54:01.641Z,1.40
2022-11-17T19:56:28.174Z,1.40
2022-11-17T19:58:54.519Z,1.52
2022-11-17T20:01:28.640Z,1.67
2022-11-17T20:03:56.606Z,1.58
2022-11-17T20:06:25.578Z,1.90
2022-11-17T20:08:51.923Z,2.00
2022-11-17T20:11:21.110Z,1.73
2022-11-17T20:13:47.841Z,1.88
2022-11-17T20:16:19.706Z,1.50
2022-11-17T20:18:49.408Z,1.52
2022-11-17T20:21:15.708Z,1.65
2022-11-17T20:23:42.138Z,1.80
2022-11-17T20:26:12.248Z,1.60
2022-11-17T20:28:39.030Z,1.70
2022-11-17T20:31:10.261Z,1.48
2022-11-17T20:33:41.536Z,1.60
2022-11-17T20:36:10.986Z,1.35
2022-11-17T20:38:37.483Z,1.70
2022-11-17T20:41:04.719Z,1.67
2022-11-17T20:43:31.522Z,2.00
2022-11-17T20:45:58.174Z,1.85
2022-11-17T20:48:25.338Z,1.50
2022-11-17T20:51:12.339Z,1.67
2022-11-17T20:53:39.361Z,1.63
2022-11-17T20:56:08.236Z,1.70
2022-11-17T20:58:35.238Z,1.98
2022-11-17T21:01:13.168Z,1.95
2022-11-17T21:03:40.171Z,1.85
2022-11-17T21:06:07.112Z,1.80
2022-11-17T21:08:35.966Z,1.60
2022-11-17T21:11:05.200Z,2.05
2022-11-17T21:13:33.174Z,1.70
2022-11-17T21:16:08.494Z,1.77
2022-11-17T21:18:36.179Z,2.20
2022-11-17T21:21:02.952Z,2.20
2022-11-17T21:23:29.310Z,2.03
2022-11-17T21:25:55.650Z,2.20
2022-11-17T21:28:22.032Z,2.20
2022-11-17T21:30:48.433Z,2.13
2022-11-17T21:33:14.754Z,2.40
2022-11-17T21:35:41.097Z,2.30
2022-11-17T21:38:07.505Z,1.67
2022-11-17T21:40:33.901Z,2.60
2022-11-17T21:43:00.224Z,2.65
2022-11-17T21:45:26.591Z,2.42
2022-11-17T21:47:58.045Z,2.40
2022-11-17T21:50:25.691Z,2.30
2022-11-17T21:52:52.027Z,2.17
2022-11-17T21:55:18.357Z,2.35
2022-11-17T21:57:44.640Z,2.40
2022-11-17T22:02:37.365Z,2.28
2022-11-17T22:05:03.888Z,2.70
2022-11-17T22:07:30.275Z,2.63
2022-11-17T22:09:56.614Z,2.60
2022-11-17T22:14:49.398Z,2.92
2022-11-17T22:17:15.758Z,2.90
2022-11-17T22:19:42.075Z,2.65
2022-11-17T22:22:08.442Z,3.10
2022-11-17T22:24:39.607Z,2.90
2022-11-17T22:27:06.270Z,2.88
2022-11-17T22:29:33.119Z,2.92
2022-11-17T22:31:59.569Z,2.92
2022-11-17T22:34:25.906Z,3.22
2022-11-17T22:36:52.244Z,2.97
2022-11-17T22:39:18.841Z,2.70
2022-11-17T22:41:45.527Z,2.78
2022-11-17T22:44:13.802Z,3.15
2022-11-17T22:46:40.523Z,2.70
2022-11-17T22:49:06.972Z,3.00
2022-11-17T22:51:33.291Z,2.97
2022-11-17T22:56:25.851Z,2.85
2022-11-17T22:58:55.474Z,3.15
2022-11-17T23:01:25.826Z,3.15
2022-11-17T23:03:52.231Z,2.90
2022-11-17T23:06:18.646Z,2.85
2022-11-17T23:08:44.947Z,2.75
2022-11-17T23:11:38.509Z,3.13
2022-11-17T23:13:57.599Z,3.05
2022-11-17T23:16:23.916Z,3.50
2022-11-17T23:18:54.846Z,3.63
2022-11-17T23:21:21.643Z,2.95
2022-11-17T23:23:48.004Z,2.92
2022-11-17T23:26:14.448Z,2.80
2022-11-17T23:28:42.337Z,3.20
2022-11-17T23:31:14.472Z,3.30
2022-11-17T23:33:45.737Z,3.15
2022-11-17T23:36:15.277Z,3.20
2022-11-17T23:38:41.695Z,3.08
2022-11-17T23:41:11.206Z,3.28
2022-11-17T23:43:37.708Z,3.30
2022-11-17T23:46:15.895Z,3.17
2022-11-17T23:48:43.179Z,2.85
2022-11-17T23:51:16.179Z,3.42
2022-11-17T23:53:42.614Z,3.55
2022-11-17T23:56:10.004Z,3.38
2022-11-17T23:58:36.958Z,3.03
